Time;durP1;ratioP1;P1;durP2;ratioP2;P2;SDS_P1;SDS_P2;PMS_P1;PMS_P2;Temp;Humidity;BMP_temperature;BMP_pressure;BME280_temperature;BME280_humidity;BME280_pressure;Samples;Min_cycle;Max_cycle;Signal;HPM_P1;HPM_P2
2022/08/17 00:00:25;;;;;;;11.50;10.47;;;;;;;20.35;73.58;99804.78;5045782;28;21171;-81
2022/08/17 00:03:04;;;;;;;11.83;10.73;;;;;;;20.35;73.54;99803.94;5053803;28;20450;-81
2022/08/17 00:05:33;;;;;;;13.90;11.70;;;;;;;20.32;73.93;99805.19;5045572;28;20465;-81
2022/08/17 00:08:00;;;;;;;13.70;11.30;;;;;;;20.32;74.13;99806.03;5062090;28;20452;-81
2022/08/17 00:10:28;;;;;;;12.03;11.03;;;;;;;20.38;73.80;99801.63;5045460;28;20473;-83
2022/08/17 00:12:55;;;;;;;13.20;10.90;;;;;;;20.42;73.68;99791.16;5045606;28;20469;-82
2022/08/17 00:15:23;;;;;;;13.23;11.93;;;;;;;20.39;73.99;99792.41;5064838;28;20514;-82
2022/08/17 00:17:51;;;;;;;12.57;11.37;;;;;;;20.38;74.33;99793.50;5051800;28;20449;-81
2022/08/17 00:20:18;;;;;;;11.57;10.57;;;;;;;20.33;74.43;99790.59;5046279;28;20436;-82
2022/08/17 00:22:45;;;;;;;11.93;10.83;;;;;;;20.29;74.48;99795.63;5062070;28;20444;-82
2022/08/17 00:25:15;;;;;;;13.07;11.80;;;;;;;20.33;74.30;99793.31;5053341;28;20445;-83
2022/08/17 00:27:43;;;;;;;13.60;12.30;;;;;;;20.35;74.50;99793.09;5054050;28;20458;-83
2022/08/17 00:30:13;;;;;;;12.53;11.33;;;;;;;20.30;74.73;99793.72;5060548;28;20831;-84
2022/08/17 00:32:42;;;;;;;13.17;11.87;;;;;;;20.26;74.60;99793.31;5047777;28;20496;-84
2022/08/17 00:35:11;;;;;;;12.40;11.10;;;;;;;20.19;74.60;99797.94;5062945;28;20445;-83
2022/08/17 00:37:38;;;;;;;12.57;11.40;;;;;;;20.19;74.94;99792.53;5061732;28;20475;-83
2022/08/17 00:40:07;;;;;;;13.30;12.03;;;;;;;20.18;75.04;99785.41;5063586;28;20456;-83
2022/08/17 00:42:34;;;;;;;13.30;11.80;;;;;;;20.09;74.66;99792.97;5046901;28;20452;-83
2022/08/17 00:45:03;;;;;;;11.93;10.83;;;;;;;20.11;74.77;99790.88;5056936;28;20441;-83
2022/08/17 00:47:30;;;;;;;12.70;11.60;;;;;;;20.03;74.53;99792.97;5045178;28;20478;-85
2022/08/17 00:49:57;;;;;;;13.07;11.77;;;;;;;20.10;74.58;99793.78;5056445;28;20480;-82
2022/08/17 00:52:28;;;;;;;12.50;11.23;;;;;;;20.15;74.51;99790.44;5045470;28;20484;-85
2022/08/17 00:54:56;;;;;;;12.17;11.00;;;;;;;20.17;74.37;99783.75;5056731;28;20453;-83
2022/08/17 00:57:25;;;;;;;11.10;10.10;;;;;;;20.06;75.54;99779.81;5062845;28;20481;-85
2022/08/17 00:59:56;;;;;;;12.03;10.93;;;;;;;19.98;76.41;99787.38;5061201;28;20451;-83
2022/08/17 01:02:25;;;;;;;17.60;11.70;;;;;;;19.93;76.09;99790.75;5043717;28;20489;-84
2022/08/17 01:04:52;;;;;;;14.20;11.27;;;;;;;19.96;76.07;99784.03;5054306;28;20441;-84
2022/08/17 01:07:20;;;;;;;12.23;11.10;;;;;;;19.93;76.10;99782.59;5049855;28;20512;-84
2022/08/17 01:09:47;;;;;;;12.87;11.70;;;;;;;19.92;75.76;99787.16;5059147;28;20476;-83
2022/08/17 01:12:14;;;;;;;13.13;12.07;;;;;;;19.68;76.30;99780.50;5047091;28;20482;-83
2022/08/17 01:14:41;;;;;;;13.60;11.80;;;;;;;19.49;77.09;99778.69;5063656;28;20429;-81
2022/08/17 01:17:09;;;;;;;12.20;11.10;;;;;;;19.48;77.37;99786.00;5050947;28;20485;-82
2022/08/17 01:19:39;;;;;;;14.00;12.70;;;;;;;19.52;77.51;99786.41;5045556;28;20449;-81
2022/08/17 01:22:08;;;;;;;15.10;13.63;;;;;;;19.45;77.11;99785.56;5060950;28;20937;-81
2022/08/17 01:24:37;;;;;;;13.30;12.03;;;;;;;19.57;76.66;99790.13;5045511;28;20442;-81
2022/08/17 01:27:04;;;;;;;14.33;12.50;;;;;;;19.60;77.04;99793.47;5053551;28;20877;-81
2022/08/17 01:29:31;;;;;;;12.60;11.50;;;;;;;19.60;76.87;99788.03;5058127;28;20492;-81
2022/08/17 01:32:01;;;;;;;13.20;11.80;;;;;;;19.65;77.41;99790.97;5043975;28;20473;-81
2022/08/17 01:34:28;;;;;;;13.13;11.93;;;;;;;19.59;77.35;99797.25;5045579;28;20438;-81
2022/08/17 01:36:54;;;;;;;18.40;13.30;;;;;;;19.42;77.45;99784.09;5052142;28;20506;-81
2022/08/17 01:39:28;;;;;;;15.13;11.90;;;;;;;19.50;77.23;99789.31;5062062;28;20441;-81
2022/08/17 01:42:03;;;;;;;12.77;11.47;;;;;;;19.44;77.35;99795.56;5048149;28;20473;-81
2022/08/17 01:44:30;;;;;;;16.83;12.07;;;;;;;19.47;77.33;99791.63;5046441;28;20441;-82
2022/08/17 01:46:57;;;;;;;14.63;11.77;;;;;;;19.41;77.50;99781.59;5060793;28;20607;-80
2022/08/17 01:49:23;;;;;;;13.00;11.70;;;;;;;19.34;77.97;99779.75;5051970;28;20446;-81
2022/08/17 01:51:50;;;;;;;15.40;12.30;;;;;;;19.32;78.16;99783.69;5058815;28;20484;-81
2022/08/17 01:54:19;;;;;;;14.80;13.30;;;;;;;19.31;77.75;99793.72;5047793;28;20450;-82
2022/08/17 01:56:48;;;;;;;14.80;13.20;;;;;;;19.25;78.39;99788.28;5061024;28;20486;-80
2022/08/17 01:59:17;;;;;;;14.87;13.37;;;;;;;19.09;78.87;99793.06;5044373;28;20438;-81
2022/08/17 02:01:44;;;;;;;14.20;13.00;;;;;;;19.12;78.82;99792.66;5052002;28;20491;-82
2022/08/17 02:04:12;;;;;;;13.70;12.40;;;;;;;19.07;78.99;99788.91;5060164;28;20433;-81
2022/08/17 02:06:40;;;;;;;14.20;12.80;;;;;;;19.12;78.99;99789.13;5058694;28;21037;-81
2022/08/17 02:09:07;;;;;;;13.80;12.47;;;;;;;19.12;78.68;99792.66;5045749;28;20430;-81
2022/08/17 02:11:36;;;;;;;14.60;12.80;;;;;;;19.09;79.01;99784.94;5062585;28;20483;-82
2022/08/17 02:14:03;;;;;;;14.50;13.03;;;;;;;19.12;78.74;99797.25;5059631;28;20452;-83
2022/08/17 02:16:32;;;;;;;13.13;12.03;;;;;;;19.05;79.32;99797.25;5052208;28;20573;-85
2022/08/17 02:19:00;;;;;;;14.10;12.70;;;;;;;18.97;79.57;99790.16;5056853;28;20957;-86
2022/08/17 02:21:27;;;;;;;17.30;13.43;;;;;;;18.93;79.87;99791.59;5062694;28;20479;-85
2022/08/17 02:23:54;;;;;;;13.43;12.17;;;;;;;18.90;79.95;99781.19;5051026;28;20445;-85
2022/08/17 02:26:22;;;;;;;13.60;12.40;;;;;;;18.91;79.41;99779.31;5042055;28;20508;-85
2022/08/17 02:28:49;;;;;;;14.10;12.90;;;;;;;18.87;79.82;99778.06;5054560;28;20465;-86
2022/08/17 02:31:16;;;;;;;13.50;12.20;;;;;;;19.00;79.24;99780.78;5059202;28;20489;-85
2022/08/17 02:33:44;;;;;;;14.37;12.87;;;;;;;19.06;79.12;99779.09;5059885;28;20487;-81
2022/08/17 02:36:12;;;;;;;13.00;11.70;;;;;;;18.99;79.19;99777.25;5061466;28;20480;-82
2022/08/17 02:38:40;;;;;;;16.80;12.87;;;;;;;18.84;80.00;99784.72;5055328;28;20473;-82
2022/08/17 02:41:07;;;;;;;14.10;12.73;;;;;;;18.79;80.26;99770.94;5055275;28;20530;-82
2022/08/17 02:43:34;;;;;;;14.57;13.17;;;;;;;18.76;80.39;99774.06;5047602;28;20521;-82
2022/08/17 02:46:01;;;;;;;16.77;13.23;;;;;;;18.78;80.65;99785.50;5059745;28;20481;-85
2022/08/17 02:48:28;;;;;;;14.50;13.00;;;;;;;18.80;80.66;99784.28;5043075;28;20454;-84
2022/08/17 02:50:56;;;;;;;14.63;13.30;;;;;;;18.78;80.62;99778.22;5043465;28;20476;-84
2022/08/17 02:53:22;;;;;;;14.70;13.30;;;;;;;18.80;80.71;99784.28;5043643;28;20484;-84
2022/08/17 02:55:49;;;;;;;15.10;13.40;;;;;;;18.81;80.48;99776.97;5056649;28;21065;-83
2022/08/17 02:58:16;;;;;;;14.93;13.43;;;;;;;18.77;80.77;99778.44;5054674;28;20449;-84
2022/08/17 03:00:46;;;;;;;14.90;13.50;;;;;;;18.75;80.73;99766.97;5058063;28;20472;-84
2022/08/17 03:03:17;;;;;;;15.47;13.53;;;;;;;18.76;80.53;99768.63;5060326;28;20457;-84
2022/08/17 03:05:46;;;;;;;15.47;14.17;;;;;;;18.72;80.79;99764.69;5060438;28;20469;-84
2022/08/17 03:08:15;;;;;;;15.40;14.00;;;;;;;18.69;80.70;99768.63;5060291;28;20572;-85
2022/08/17 03:10:42;;;;;;;14.43;13.03;;;;;;;18.69;80.76;99770.50;5057711;28;20488;-84
2022/08/17 03:13:09;;;;;;;15.27;13.97;;;;;;;18.64;81.24;99768.41;5058279;28;21051;-83
2022/08/17 03:15:38;;;;;;;15.23;13.60;;;;;;;18.65;81.19;99761.97;5054702;28;20501;-82
2022/08/17 03:18:05;;;;;;;14.80;13.30;;;;;;;18.57;81.27;99762.97;5061150;28;20456;-83
2022/08/17 03:20:33;;;;;;;15.90;13.57;;;;;;;18.48;81.82;99752.56;5051121;28;20473;-83
2022/08/17 03:23:00;;;;;;;16.93;14.50;;;;;;;18.48;81.77;99760.66;5043211;28;20942;-83
2022/08/17 03:25:31;;;;;;;14.07;12.60;;;;;;;18.48;81.82;99768.78;5043696;28;20465;-82
2022/08/17 03:27:58;;;;;;;18.03;13.80;;;;;;;18.46;81.80;99765.47;5043826;28;20865;-83
2022/08/17 03:30:26;;;;;;;14.10;12.90;;;;;;;18.37;81.66;99767.50;5061694;28;20488;-83
2022/08/17 03:32:56;;;;;;;16.07;14.50;;;;;;;18.30;81.84;99767.50;5055553;28;20493;-83
2022/08/17 03:35:25;;;;;;;15.77;14.17;;;;;;;18.31;81.81;99765.59;5047732;28;20446;-83
2022/08/17 03:37:52;;;;;;;21.83;14.10;;;;;;;18.28;81.84;99766.00;5045224;28;20951;-83
2022/08/17 03:40:19;;;;;;;15.13;13.67;;;;;;;18.28;81.44;99774.13;5053765;28;20987;-82
2022/08/17 03:42:47;;;;;;;14.03;12.60;;;;;;;18.26;81.85;99771.63;5066004;28;20445;-83
2022/08/17 03:56:40;;;;;;;16.57;13.70;;;;;;;18.29;82.10;99773.94;5063604;28;20462;-82
2022/08/17 03:59:02;;;;;;;14.97;13.50;;;;;;;18.26;81.29;99771.63;5046619;28;20464;-84
2022/08/17 04:01:29;;;;;;;15.17;13.27;;;;;;;18.30;82.70;99772.91;5052743;28;20904;-83
2022/08/17 04:03:56;;;;;;;15.33;13.43;;;;;;;18.49;82.57;99778.56;5052906;28;20485;-82
2022/08/17 04:06:23;;;;;;;14.40;12.97;;;;;;;18.72;81.58;99770.09;5053018;28;20485;-82
2022/08/17 04:08:50;;;;;;;13.93;12.47;;;;;;;18.94;80.73;99770.75;5065763;28;20464;-83
2022/08/17 04:11:16;;;;;;;14.67;13.17;;;;;;;19.10;79.16;99773.06;5059393;28;20472;-82
2022/08/17 04:13:43;;;;;;;13.60;12.30;;;;;;;19.33;77.99;99766.41;5065696;28;20475;-83
2022/08/17 04:16:11;;;;;;;14.43;12.93;;;;;;;19.33;77.58;99769.09;5065217;28;20519;-82
2022/08/17 04:18:38;;;;;;;14.43;13.03;;;;;;;19.24;76.29;99771.19;5064462;28;20456;-83
2022/08/17 04:21:05;;;;;;;18.67;12.50;;;;;;;19.06;77.86;99779.97;5053565;28;20483;-82
2022/08/17 04:23:33;;;;;;;14.30;12.87;;;;;;;19.03;78.04;99782.25;5065676;28;20433;-83
2022/08/17 04:26:01;;;;;;;12.93;11.50;;;;;;;19.33;77.33;99782.66;5060079;28;20477;-82
2022/08/17 04:28:28;;;;;;;18.33;12.37;;;;;;;19.38;76.88;99789.13;5060182;28;20491;-83
2022/08/17 04:30:55;;;;;;;13.50;12.20;;;;;;;19.38;76.58;99782.88;5051678;28;20543;-75
2022/08/17 04:33:25;;;;;;;13.47;12.27;;;;;;;19.46;76.01;99789.94;5053692;28;20488;-78
2022/08/17 04:35:54;;;;;;;14.77;13.37;;;;;;;19.47;76.27;99786.19;5064394;28;21265;-75
2022/08/17 04:38:23;;;;;;;13.13;11.90;;;;;;;19.57;76.30;99792.03;5062609;28;20460;-77
2022/08/17 04:43:35;;;;;;;14.03;12.10;;;;;;;19.71;75.62;99798.25;5053695;28;20487;-73
2022/08/17 04:46:04;;;;;;;19.43;12.27;;;;;;;19.78;75.43;99798.28;5059828;28;20484;-73
2022/08/17 04:48:35;;;;;;;12.13;11.03;;;;;;;19.96;74.56;99800.31;5061460;28;20484;-73
2022/08/17 04:51:02;;;;;;;14.13;12.57;;;;;;;20.10;74.07;99799.22;5062825;28;20562;-73
2022/08/17 04:53:28;;;;;;;13.30;11.97;;;;;;;20.25;73.20;99801.69;5063910;28;20886;-73
2022/08/17 04:55:57;;;;;;;11.37;10.23;;;;;;;20.33;72.70;99790.59;5059513;28;20480;-73
2022/08/17 04:58:23;;;;;;;11.90;10.70;;;;;;;20.39;72.30;99802.47;5063401;28;20467;-72
2022/08/17 05:00:50;;;;;;;12.27;11.13;;;;;;;20.46;72.46;99804.06;5061866;28;20526;-72
2022/08/17 05:03:17;;;;;;;12.20;11.20;;;;;;;20.53;72.05;99805.94;5044830;28;20484;-72
2022/08/17 05:05:48;;;;;;;13.33;11.53;;;;;;;20.50;72.37;99813.47;5044512;28;20481;-72
2022/08/17 05:08:16;;;;;;;12.30;11.20;;;;;;;20.50;72.81;99812.63;5063737;28;20548;-72
2022/08/17 05:10:43;;;;;;;12.70;11.50;;;;;;;20.61;72.52;99811.94;5064496;28;20492;-73
2022/08/17 05:13:11;;;;;;;13.70;12.40;;;;;;;20.57;72.32;99818.88;5045949;28;21032;-72
2022/08/17 05:15:40;;;;;;;16.27;13.80;;;;;;;20.53;71.51;99816.81;5049756;28;20475;-73
2022/08/17 05:18:07;;;;;;;14.33;13.10;;;;;;;20.73;71.20;99822.16;5061775;28;20461;-75
2022/08/17 05:20:35;;;;;;;14.77;13.47;;;;;;;20.86;70.67;99819.34;5063989;28;20464;-77
2022/08/17 05:23:08;;;;;;;13.90;12.70;;;;;;;21.14;69.44;99826.28;5062655;28;20441;-76
2022/08/17 05:25:36;;;;;;;16.60;12.90;;;;;;;21.38;67.91;99827.34;5063318;28;20488;-76
2022/08/17 05:28:04;;;;;;;14.73;12.00;;;;;;;21.59;67.19;99821.53;5059924;28;20464;-75
2022/08/17 05:30:31;;;;;;;16.20;11.43;;;;;;;22.17;65.15;99824.94;5063107;28;20473;-79
2022/08/17 05:33:01;;;;;;;13.57;12.17;;;;;;;21.75;66.11;99820.16;5063417;28;20876;-79
2022/08/17 05:35:30;;;;;;;12.93;11.73;;;;;;;21.83;66.22;99820.91;5063763;28;20483;-79
2022/08/17 05:37:57;;;;;;;17.60;13.73;;;;;;;22.00;65.25;99830.16;5064539;28;20489;-79
2022/08/17 05:40:25;;;;;;;13.93;12.53;;;;;;;21.95;65.63;99821.81;5063664;28;20425;-78
2022/08/17 05:43:02;;;;;;;13.53;12.20;;;;;;;21.86;66.04;99823.19;5064359;28;20910;-79
2022/08/17 05:45:30;;;;;;;17.10;13.47;;;;;;;21.56;67.11;99821.16;5063640;28;20828;-79
2022/08/17 05:47:57;;;;;;;13.80;12.40;;;;;;;21.44;67.28;99824.56;5058448;28;20474;-80
2022/08/17 05:50:30;;;;;;;15.73;12.10;;;;;;;21.43;67.68;99832.97;5041643;28;20496;-81
2022/08/17 05:53:03;;;;;;;13.30;12.10;;;;;;;21.41;67.70;99816.84;5042338;28;20426;-81
2022/08/17 05:55:37;;;;;;;16.93;12.80;;;;;;;21.56;67.57;99826.59;5041915;28;20488;-81
2022/08/17 05:58:11;;;;;;;14.50;12.67;;;;;;;21.63;67.34;99830.09;5041747;28;20481;-81
2022/08/17 06:00:54;;;;;;;15.73;13.00;;;;;;;21.77;66.33;99830.81;5053083;28;20473;-81
2022/08/17 06:03:40;;;;;;;14.93;12.20;;;;;;;21.73;66.03;99835.00;5061812;28;21041;-79
2022/08/17 06:06:24;;;;;;;13.63;12.23;;;;;;;22.54;63.83;99831.19;5061382;28;20464;-82
2022/08/17 06:08:54;;;;;;;18.67;13.20;;;;;;;22.52;63.13;99824.31;5043942;28;20536;-82
2022/08/17 06:11:28;;;;;;;15.40;14.00;;;;;;;22.51;63.06;99833.53;5058230;28;20476;-82
2022/08/17 06:14:09;;;;;;;14.80;13.40;;;;;;;22.34;62.76;99836.91;5052504;28;20472;-83
2022/08/17 06:16:38;;;;;;;14.23;12.80;;;;;;;22.89;61.97;99829.69;5060933;28;20469;-82
2022/08/17 06:19:11;;;;;;;14.97;13.57;;;;;;;22.78;62.13;99836.75;5062348;28;20460;-81
2022/08/17 06:21:41;;;;;;;13.70;12.40;;;;;;;24.13;58.47;99838.97;5062413;28;20472;-81
2022/08/17 06:24:20;;;;;;;14.73;13.07;;;;;;;24.56;57.09;99829.50;5063621;28;20457;-82
2022/08/17 06:26:49;;;;;;;14.60;13.10;;;;;;;24.60;56.24;99825.22;5062305;28;20618;-82
2022/08/17 06:29:36;;;;;;;14.37;13.07;;;;;;;25.10;54.53;99818.19;5062251;28;20500;-82
2022/08/17 06:32:03;;;;;;;16.03;13.20;;;;;;;25.77;52.27;99814.63;5062253;28;20694;-80
2022/08/17 06:34:31;;;;;;;12.20;10.93;;;;;;;26.37;50.18;99818.47;5063180;28;20522;-81
2022/08/17 06:37:06;;;;;;;11.90;10.90;;;;;;;27.49;47.51;99814.41;5061188;28;20484;-80
2022/08/17 06:39:40;;;;;;;11.10;10.10;;;;;;;27.78;45.94;99818.44;5062626;28;20431;-79
2022/08/17 06:42:19;;;;;;;10.40;9.50;;;;;;;27.56;45.56;99817.75;5062657;28;20534;-81
2022/08/17 06:44:49;;;;;;;11.40;10.30;;;;;;;27.22;46.81;99807.00;5062975;28;20443;-81
2022/08/17 06:47:22;;;;;;;11.20;10.20;;;;;;;26.58;48.33;99814.06;5061826;28;21005;-81
2022/08/17 06:49:53;;;;;;;11.60;10.40;;;;;;;27.04;47.79;99810.97;5062810;28;20813;-82
2022/08/17 06:52:25;;;;;;;14.37;10.63;;;;;;;26.72;47.95;99802.69;5061882;28;20575;-82
2022/08/17 06:54:56;;;;;;;11.10;9.33;;;;;;;27.64;45.68;99810.91;5062309;28;20460;-83
2022/08/17 06:57:28;;;;;;;13.90;10.90;;;;;;;27.47;46.40;99805.59;5060123;28;20564;-82
2022/08/17 06:59:57;;;;;;;12.00;10.20;;;;;;;27.40;47.41;99803.06;5060758;28;20463;-82
2022/08/17 07:02:36;;;;;;;17.30;10.27;;;;;;;28.16;44.92;99808.22;5061321;28;20498;-83
2022/08/17 07:05:05;;;;;;;11.10;9.83;;;;;;;28.10;44.87;99814.78;5062139;28;20437;-83
2022/08/17 07:10:17;;;;;;;10.93;9.87;;;;;;;27.76;46.55;99817.06;5061807;28;20520;-82
2022/08/17 07:12:45;;;;;;;9.70;8.80;;;;;;;27.89;46.22;99816.56;5061482;28;21067;-80
2022/08/17 07:15:16;;;;;;;10.27;9.30;;;;;;;28.12;44.88;99820.88;5060732;28;20560;-82
2022/08/17 07:17:45;;;;;;;10.77;9.60;;;;;;;27.63;46.60;99807.34;5061193;28;20995;-82
2022/08/17 07:20:16;;;;;;;9.53;8.67;;;;;;;27.63;46.27;99806.53;5058657;28;20445;-83
2022/08/17 07:22:54;;;;;;;10.40;9.50;;;;;;;27.59;46.46;99808.97;5061053;28;20451;-82
2022/08/17 07:25:21;;;;;;;10.43;9.40;;;;;;;26.95;47.82;99805.13;5048715;28;20446;-83
2022/08/17 07:27:52;;;;;;;9.27;8.33;;;;;;;26.98;47.88;99812.84;5041000;28;20959;-82
2022/08/17 07:30:21;;;;;;;11.37;10.27;;;;;;;27.20;47.23;99814.69;5040497;28;20461;-84
2022/08/17 07:32:52;;;;;;;9.60;8.80;;;;;;;28.05;45.99;99817.50;5041247;28;20977;-82
2022/08/17 07:35:21;;;;;;;10.40;9.20;;;;;;;28.49;44.50;99824.59;5051149;28;20509;-81
2022/08/17 07:37:52;;;;;;;10.20;9.20;;;;;;;29.42;43.29;99820.06;5061072;28;20495;-82
2022/08/17 07:40:26;;;;;;;9.80;8.90;;;;;;;30.85;38.95;99815.19;5061499;28;20455;-83
2022/08/17 07:43:08;;;;;;;9.50;7.93;;;;;;;30.76;40.03;99817.75;5061554;28;20440;-83
2022/08/17 07:48:23;;;;;;;9.90;7.80;;;;;;;30.55;40.37;99817.03;5061220;28;20444;-81
2022/08/17 07:50:51;;;;;;;9.40;8.50;;;;;;;30.31;39.92;99819.59;5061145;28;20511;-79
2022/08/17 07:53:22;;;;;;;9.60;8.70;;;;;;;29.86;41.04;99825.00;5054249;28;20484;-81
2022/08/17 07:55:49;;;;;;;10.63;8.47;;;;;;;30.10;41.60;99832.66;5046302;28;20488;-81
2022/08/17 07:58:18;;;;;;;9.17;8.30;;;;;;;29.26;42.73;99824.75;5057872;28;20511;-81
2022/08/17 08:00:46;;;;;;;9.13;8.30;;;;;;;28.73;43.65;99828.53;5060211;28;20494;-82
2022/08/17 08:03:17;;;;;;;8.63;7.73;;;;;;;28.70;44.94;99823.56;5061109;28;20450;-82
2022/08/17 08:05:54;;;;;;;8.50;7.70;;;;;;;28.18;44.77;99825.28;5060828;28;20928;-81
2022/08/17 08:08:31;;;;;;;9.20;8.27;;;;;;;28.06;45.25;99834.84;5044656;28;20485;-81
2022/08/17 08:11:02;;;;;;;10.33;9.30;;;;;;;28.42;44.98;99830.34;5040973;28;20584;-83
2022/08/17 08:13:32;;;;;;;12.23;9.83;;;;;;;28.28;45.08;99827.25;5040909;28;20501;-82
2022/08/17 08:16:24;;;;;;;11.30;8.87;;;;;;;28.29;44.52;99822.56;5041114;28;20462;-82
2022/08/17 08:18:53;;;;;;;8.03;7.33;;;;;;;28.80;44.80;99822.78;5041325;28;20458;-82
2022/08/17 08:21:28;;;;;;;9.00;8.20;;;;;;;27.91;46.57;99830.03;5040292;28;20536;-82
2022/08/17 08:24:00;;;;;;;9.03;8.07;;;;;;;28.08;45.47;99822.47;5041346;28;21160;-82
2022/08/17 08:26:34;;;;;;;11.83;8.13;;;;;;;27.88;47.10;99820.44;5044533;28;20495;-83
2022/08/17 08:29:14;;;;;;;9.50;8.03;;;;;;;28.59;44.42;99821.06;5043562;28;21085;-82
2022/08/17 08:31:55;;;;;;;9.60;7.73;;;;;;;28.49;45.71;99822.66;5044041;28;20473;-82
2022/08/17 08:34:26;;;;;;;8.67;7.23;;;;;;;28.22;44.92;99825.56;5056161;28;20521;-81
2022/08/17 08:37:00;;;;;;;9.57;7.90;;;;;;;28.15;45.04;99830.47;5063210;28;20476;-82
2022/08/17 08:39:37;;;;;;;8.80;7.90;;;;;;;27.97;46.11;99829.84;5064488;28;20476;-82
2022/08/17 08:42:07;;;;;;;10.20;7.23;;;;;;;28.31;46.96;99823.13;5064035;28;20468;-81
2022/08/17 08:44:44;;;;;;;9.53;7.33;;;;;;;28.36;45.11;99826.72;5063840;28;20436;-80
2022/08/17 08:47:18;;;;;;;17.07;7.70;;;;;;;28.28;45.44;99827.25;5063632;28;21073;-81
2022/08/17 08:50:07;;;;;;;9.17;8.17;;;;;;;28.49;45.94;99824.59;5063856;28;20460;-81
2022/08/17 08:52:55;;;;;;;10.13;7.13;;;;;;;29.26;43.82;99825.59;5064118;28;20433;-82
2022/08/17 08:55:31;;;;;;;13.17;6.90;;;;;;;29.59;43.25;99825.31;5060690;28;20476;-81
2022/08/17 08:58:01;;;;;;;9.20;6.80;;;;;;;30.30;41.41;99831.75;5042802;28;20540;-82
2022/08/17 09:00:34;;;;;;;8.53;7.60;;;;;;;31.36;39.03;99823.13;5043645;28;20505;-82
2022/08/17 09:03:25;;;;;;;7.60;6.03;;;;;;;32.51;37.61;99829.94;5048700;28;20473;-83
2022/08/17 09:06:07;;;;;;;7.13;6.47;;;;;;;32.59;37.40;99830.09;5042935;28;20475;-82
2022/08/17 09:08:49;;;;;;;8.97;6.70;;;;;;;34.20;33.54;99831.91;5043540;28;20809;-82
2022/08/17 09:11:21;;;;;;;5.77;5.27;;;;;;;35.20;32.47;99833.84;5043094;28;20486;-81
2022/08/17 09:13:54;;;;;;;6.70;6.10;;;;;;;33.59;33.66;99831.91;5043110;28;20430;-81
2022/08/17 09:16:28;;;;;;;8.63;6.17;;;;;;;31.71;38.00;99837.75;5043506;28;20551;-81
2022/08/17 09:18:58;;;;;;;8.70;6.10;;;;;;;32.81;35.29;99834.25;5057607;28;20461;-81
2022/08/17 09:21:30;;;;;;;7.00;6.30;;;;;;;33.80;34.79;99823.22;5062231;28;20466;-82
2022/08/17 09:24:03;;;;;;;6.73;5.87;;;;;;;33.84;33.66;99827.06;5064242;28;20468;-81
2022/08/17 09:26:34;;;;;;;8.90;5.97;;;;;;;34.69;32.53;99822.78;5062943;28;20478;-81
2022/08/17 09:29:05;;;;;;;6.43;5.07;;;;;;;34.81;31.95;99830.59;5063166;28;20450;-82
2022/08/17 09:31:38;;;;;;;8.33;5.83;;;;;;;35.11;30.20;99819.91;5063806;28;20471;-83
2022/08/17 09:34:08;;;;;;;8.83;4.63;;;;;;;34.65;30.07;99815.38;5063626;28;20485;-83
2022/08/17 09:36:41;;;;;;;6.20;5.10;;;;;;;34.34;32.03;99810.53;5062603;28;20489;-81
2022/08/17 09:39:13;;;;;;;8.00;4.77;;;;;;;34.54;31.98;99812.03;5063825;28;20466;-82
2022/08/17 09:41:44;;;;;;;5.93;5.07;;;;;;;35.41;31.04;99809.16;5063276;28;20543;-81
2022/08/17 09:44:18;;;;;;;6.23;4.90;;;;;;;35.13;30.09;99819.59;5063657;28;20439;-82
2022/08/17 09:46:48;;;;;;;5.67;4.07;;;;;;;34.63;32.46;99807.38;5063613;28;20542;-82
2022/08/17 09:49:22;;;;;;;7.63;4.63;;;;;;;35.45;29.79;99811.00;5063066;28;20947;-81
2022/08/17 09:51:54;;;;;;;5.93;4.87;;;;;;;33.75;32.82;99805.59;5063039;28;20582;-81
2022/08/17 09:54:25;;;;;;;6.37;4.73;;;;;;;34.40;31.92;99802.91;5064111;28;20474;-81
2022/08/17 09:56:58;;;;;;;4.87;4.37;;;;;;;34.42;32.63;99803.41;5047489;28;20525;-81
2022/08/17 09:59:43;;;;;;;5.60;4.97;;;;;;;32.32;35.38;99813.31;5043032;28;20473;-82
2022/08/17 10:02:28;;;;;;;5.80;5.00;;;;;;;32.15;34.92;99802.72;5042602;28;21062;-82
2022/08/17 10:05:00;;;;;;;4.77;4.37;;;;;;;31.24;38.02;99800.59;5043255;28;20462;-82
2022/08/17 10:07:32;;;;;;;6.27;5.40;;;;;;;31.64;36.88;99795.81;5043162;28;20494;-81
2022/08/17 10:10:04;;;;;;;5.23;4.40;;;;;;;31.65;35.56;99800.25;5050160;28;20508;-82
2022/08/17 10:12:40;;;;;;;5.70;5.20;;;;;;;31.48;37.17;99795.94;5062101;28;20745;-82
2022/08/17 10:15:21;;;;;;;7.83;4.67;;;;;;;31.67;36.80;99793.28;5062250;28;20489;-80
2022/08/17 10:18:02;;;;;;;8.23;5.37;;;;;;;31.26;37.35;99792.84;5062391;28;20475;-80
2022/08/17 10:20:32;;;;;;;4.93;4.53;;;;;;;31.38;36.83;99789.69;5061137;28;20464;-82
2022/08/17 10:28:39;;;;;;;5.80;4.60;;;;;;;31.70;36.00;99783.56;5056874;28;20586;-83
2022/08/17 10:31:08;;;;;;;5.87;4.40;;;;;;;31.35;36.26;99780.88;5059517;28;20480;-80
2022/08/17 10:33:44;;;;;;;6.93;4.37;;;;;;;31.47;36.09;99786.00;5059848;28;20516;-81
2022/08/17 10:36:16;;;;;;;10.20;4.50;;;;;;;31.26;36.95;99782.59;5039122;28;20484;-81
2022/08/17 10:38:46;;;;;;;6.60;4.30;;;;;;;31.45;36.81;99785.47;5039729;28;20569;-81
2022/08/17 10:41:24;;;;;;;7.37;4.87;;;;;;;31.57;36.90;99787.06;5039810;28;20470;-82
2022/08/17 10:43:58;;;;;;;4.77;4.23;;;;;;;31.50;35.72;99787.41;5051117;28;20452;-82
2022/08/17 10:46:32;;;;;;;6.43;4.60;;;;;;;31.55;35.88;99790.09;5058834;28;20941;-82
2022/08/17 10:49:24;;;;;;;8.20;4.40;;;;;;;31.79;36.49;99787.38;5042378;28;20462;-83
2022/08/17 10:51:53;;;;;;;5.60;4.40;;;;;;;31.80;35.40;99783.47;5039822;28;20479;-83
2022/08/17 10:54:47;;;;;;;7.87;3.90;;;;;;;31.50;33.84;99781.88;5040038;28;20442;-83
2022/08/17 10:57:38;;;;;;;5.17;4.67;;;;;;;31.91;33.92;99779.47;5013831;28;21372;-83
2022/08/17 11:00:11;;;;;;;4.60;4.20;;;;;;;31.89;34.21;99776.19;5050917;28;20458;-82
2022/08/17 11:02:51;;;;;;;7.07;4.47;;;;;;;31.67;34.79;99775.91;5060856;28;20475;-81
2022/08/17 11:05:40;;;;;;;6.30;4.07;;;;;;;31.61;34.87;99766.00;5060703;28;20425;-82
2022/08/17 11:08:26;;;;;;;4.50;4.10;;;;;;;31.55;33.90;99761.66;5061685;28;20896;-82
2022/08/17 11:11:05;;;;;;;5.43;3.93;;;;;;;31.47;35.78;99760.31;5061109;28;20472;-82
2022/08/17 11:13:39;;;;;;;6.10;3.67;;;;;;;31.78;35.28;99760.84;5061316;28;20490;-83
2022/08/17 11:16:18;;;;;;;4.63;3.50;;;;;;;31.65;35.87;99745.78;5060980;28;21010;-81
2022/08/17 11:19:11;;;;;;;5.47;4.13;;;;;;;31.62;36.14;99757.41;5041998;28;20454;-82
2022/08/17 11:22:00;;;;;;;6.97;3.57;;;;;;;31.77;34.55;99756.44;5061179;28;20527;-82
2022/08/17 11:24:34;;;;;;;5.97;3.60;;;;;;;31.46;33.92;99761.44;5061876;28;20433;-82
2022/08/17 11:27:06;;;;;;;3.87;3.47;;;;;;;31.29;34.39;99768.22;5060617;28;20469;-78
2022/08/17 11:29:37;;;;;;;4.00;3.70;;;;;;;31.26;35.20;99770.75;5060879;28;20488;-81
2022/08/17 11:32:12;;;;;;;3.90;3.40;;;;;;;30.84;33.86;99767.47;5061508;28;20518;-82
2022/08/17 11:34:40;;;;;;;3.67;2.93;;;;;;;30.60;34.60;99779.19;5061613;28;20482;-81
2022/08/17 11:37:27;;;;;;;4.10;2.80;;;;;;;30.32;34.52;99768.88;5061455;28;20473;-82
2022/08/17 11:40:15;;;;;;;4.63;3.67;;;;;;;29.96;34.96;99772.59;5061822;28;20464;-82
2022/08/17 11:43:16;;;;;;;3.40;3.10;;;;;;;30.21;35.29;99770.84;5055684;28;20495;-82
2022/08/17 11:46:00;;;;;;;3.60;3.30;;;;;;;29.91;35.23;99761.63;5056136;28;20476;-80
2022/08/17 11:54:38;;;;;;;3.70;3.40;;;;;;;29.74;35.37;99769.31;5051204;28;20539;-82
2022/08/17 11:57:38;;;;;;;3.00;2.70;;;;;;;29.96;34.97;99775.34;5059841;28;20533;-82
2022/08/17 12:00:09;;;;;;;3.87;3.50;;;;;;;30.30;34.98;99774.66;5065138;28;20472;-80
2022/08/17 12:02:43;;;;;;;6.80;3.07;;;;;;;30.79;35.13;99786.81;5064849;28;20479;-82
2022/08/17 12:05:32;;;;;;;4.33;3.60;;;;;;;30.93;34.37;99778.75;5064836;28;20429;-83
2022/08/17 12:08:16;;;;;;;3.67;3.30;;;;;;;30.88;34.73;99789.78;5065216;28;20441;-82
2022/08/17 12:10:54;;;;;;;4.07;3.33;;;;;;;31.10;33.79;99790.19;5058529;28;20577;-82
2022/08/17 12:13:23;;;;;;;3.57;3.27;;;;;;;30.63;33.90;99791.63;5065609;28;20448;-82
2022/08/17 12:15:53;;;;;;;4.23;3.83;;;;;;;30.71;34.24;99785.50;5064503;28;20481;-81